Time;durP1;ratioP1;P1;durP2;ratioP2;P2;SDS_P1;SDS_P2;PMS_P1;PMS_P2;Temp;Humidity;BMP_temperature;BMP_pressure;BME280_temperature;BME280_humidity;BME280_pressure;Samples;Min_cycle;Max_cycle;Signal;HPM_P1;HPM_P2
2021/01/15 00:01:18;;;;;;;4.60;2.13;;;;;;;;;;10211791;28;19913;-63
2021/01/15 00:06:19;;;;;;;5.13;3.63;;;;;;;;;;10209006;28;20046;-63
2021/01/15 00:11:21;;;;;;;4.97;3.40;;;;;;;;;;10216674;28;20021;-65
2021/01/15 00:16:20;;;;;;;4.82;2.80;;;;;;;;;;10212225;28;20038;-64
2021/01/15 00:21:17;;;;;;;;;;;;;;;;;;10220497;28;20072;-63
2021/01/15 00:26:15;;;;;;;5.43;2.90;;;;;;;;;;10209285;28;19916;-63
2021/01/15 00:31:13;;;;;;;5.60;3.08;;;;;;;;;;10220553;28;20633;-64
2021/01/15 00:36:11;;;;;;;8.77;5.18;;;;;;;;;;10210369;28;20442;-65
2021/01/15 00:41:08;;;;;;;5.57;3.75;;;;;;;;;;10204119;28;20559;-64
2021/01/15 00:46:07;;;;;;;7.57;4.73;;;;;;;;;;10220760;28;20025;-64
2021/01/15 00:51:09;;;;;;;5.00;3.33;;;;;;;;;;10220288;28;20282;-64
2021/01/15 00:56:07;;;;;;;11.85;4.78;;;;;;;;;;10208656;28;20042;-63
2021/01/15 01:01:04;;;;;;;10.80;4.40;;;;;;;;;;10209604;28;20092;-64
2021/01/15 01:06:16;;;;;;;8.43;4.50;;;;;;;;;;10204869;28;20042;-64
2021/01/15 01:11:15;;;;;;;14.27;6.50;;;;;;;;;;10211288;28;20022;-64
2021/01/15 01:16:16;;;;;;;12.70;5.40;;;;;;;;;;10205619;28;20591;-63
2021/01/15 01:21:14;;;;;;;3.63;2.83;;;;;;;;;;10208640;28;20033;-64
2021/01/15 01:26:12;;;;;;;9.50;4.80;;;;;;;;;;10202484;28;20023;-64
2021/01/15 01:31:10;;;;;;;16.13;5.17;;;;;;;;;;10214930;28;20023;-64
2021/01/15 01:36:08;;;;;;;13.15;5.20;;;;;;;;;;10212690;28;20084;-63
2021/01/15 01:41:05;;;;;;;6.07;3.33;;;;;;;;;;10209977;28;20038;-64
2021/01/15 01:46:04;;;;;;;3.83;2.40;;;;;;;;;;10214131;28;20022;-63
2021/01/15 01:51:02;;;;;;;4.55;2.95;;;;;;;;;;10209501;28;20034;-63
2021/01/15 01:56:01;;;;;;;9.98;5.55;;;;;;;;;;10207586;28;20037;-64
2021/01/15 02:01:00;;;;;;;7.63;4.40;;;;;;;;;;10201639;28;20026;-64
2021/01/15 02:05:57;;;;;;;3.60;2.35;;;;;;;;;;10202130;28;20532;-65
2021/01/15 02:10:59;;;;;;;5.43;2.47;;;;;;;;;;10211147;28;21078;-64
2021/01/15 02:16:06;;;;;;;12.32;3.95;;;;;;;;;;10194104;28;20055;-64
2021/01/15 02:21:23;;;;;;;10.98;5.32;;;;;;;;;;10207756;28;20034;-64
2021/01/15 02:26:26;;;;;;;13.82;6.28;;;;;;;;;;10213394;28;20037;-64
2021/01/15 02:31:37;;;;;;;11.98;5.40;;;;;;;;;;10213767;28;20993;-64
2021/01/15 02:36:47;;;;;;;9.68;4.15;;;;;;;;;;10199456;28;20404;-65
2021/01/15 02:41:44;;;;;;;8.98;4.93;;;;;;;;;;10216811;28;20037;-64
2021/01/15 02:46:48;;;;;;;15.40;6.93;;;;;;;;;;10196165;28;20475;-64
2021/01/15 02:51:45;;;;;;;7.80;4.97;;;;;;;;;;10203551;28;20034;-64
2021/01/15 02:56:43;;;;;;;11.43;5.70;;;;;;;;;;10206869;28;20043;-65
2021/01/15 03:01:58;;;;;;;7.33;4.60;;;;;;;;;;10203614;28;20043;-64
2021/01/15 03:06:58;;;;;;;12.02;5.82;;;;;;;;;;10182525;28;20030;-64
2021/01/15 03:11:58;;;;;;;12.20;5.88;;;;;;;;;;10204235;28;20038;-64
2021/01/15 03:16:55;;;;;;;7.00;4.72;;;;;;;;;;10191247;28;20066;-64
2021/01/15 03:21:53;;;;;;;8.68;4.78;;;;;;;;;;10206780;28;20049;-64
2021/01/15 03:26:50;;;;;;;7.17;3.87;;;;;;;;;;10211772;28;20060;-63
2021/01/15 03:31:48;;;;;;;11.20;5.77;;;;;;;;;;10206769;28;20034;-64
2021/01/15 03:36:45;;;;;;;6.27;3.00;;;;;;;;;;10213011;28;20500;-64
2021/01/15 03:41:42;;;;;;;10.03;5.43;;;;;;;;;;10219667;28;20045;-63
2021/01/15 03:46:40;;;;;;;9.60;4.70;;;;;;;;;;10217119;28;20093;-64
2021/01/15 03:51:37;;;;;;;6.70;4.97;;;;;;;;;;10209444;28;20088;-64
2021/01/15 03:56:34;;;;;;;13.00;5.70;;;;;;;;;;10202679;28;20042;-64
2021/01/15 04:01:32;;;;;;;17.23;6.67;;;;;;;;;;10218977;28;20052;-63
2021/01/15 04:06:30;;;;;;;10.40;5.72;;;;;;;;;;10208163;28;20038;-64
2021/01/15 04:11:27;;;;;;;6.40;3.13;;;;;;;;;;10198544;28;20033;-64
2021/01/15 04:16:25;;;;;;;10.73;5.18;;;;;;;;;;10203037;28;20038;-64
2021/01/15 04:21:22;;;;;;;10.20;5.33;;;;;;;;;;10215306;28;20040;-63
2021/01/15 04:26:20;;;;;;;7.47;4.70;;;;;;;;;;10220724;28;20080;-64
2021/01/15 04:31:18;;;;;;;9.93;4.90;;;;;;;;;;10190574;28;20283;-64
2021/01/15 04:36:15;;;;;;;12.40;5.50;;;;;;;;;;10204208;28;20034;-64
2021/01/15 04:41:20;;;;;;;10.43;4.13;;;;;;;;;;10192104;28;20034;-62
2021/01/15 04:46:19;;;;;;;11.13;4.72;;;;;;;;;;10220507;28;20030;-64
2021/01/15 04:51:21;;;;;;;6.45;3.97;;;;;;;;;;10208470;28;20018;-64
2021/01/15 04:56:23;;;;;;;9.77;3.85;;;;;;;;;;10190134;28;20101;-64
2021/01/15 05:01:22;;;;;;;7.65;4.10;;;;;;;;;;10193569;28;20018;-64
2021/01/15 05:06:20;;;;;;;9.07;4.28;;;;;;;;;;10189230;28;20023;-64
2021/01/15 05:11:17;;;;;;;;;;;;;;;;;;10210571;28;20018;-64
2021/01/15 05:16:18;;;;;;;11.60;4.40;;;;;;;;;;10193731;28;19914;-64
2021/01/15 05:21:15;;;;;;;6.60;3.47;;;;;;;;;;10189479;28;20043;-64
2021/01/15 05:26:14;;;;;;;6.33;3.23;;;;;;;;;;10217331;28;20101;-64
2021/01/15 05:31:11;;;;;;;9.80;4.05;;;;;;;;;;10202984;28;20535;-63
2021/01/15 05:36:09;;;;;;;5.70;3.90;;;;;;;;;;10203117;28;20061;-64
2021/01/15 05:41:07;;;;;;;8.30;3.93;;;;;;;;;;10216949;28;20500;-64
2021/01/15 05:46:04;;;;;;;9.40;4.77;;;;;;;;;;10214672;28;20108;-64
2021/01/15 05:51:02;;;;;;;9.53;3.93;;;;;;;;;;10211297;28;20348;-64
2021/01/15 05:55:59;;;;;;;1.80;1.70;;;;;;;;;;10193284;28;20121;-65
2021/01/15 06:00:57;;;;;;;9.80;4.87;;;;;;;;;;10174590;28;20448;-65
2021/01/15 06:05:54;;;;;;;7.13;3.87;;;;;;;;;;10193320;28;20034;-64
2021/01/15 06:10:52;;;;;;;8.13;3.40;;;;;;;;;;10198453;28;20038;-66
2021/01/15 06:15:49;;;;;;;10.83;5.13;;;;;;;;;;10191248;28;20161;-65
2021/01/15 06:20:46;;;;;;;10.60;5.57;;;;;;;;;;10196750;28;20046;-63
2021/01/15 06:26:00;;;;;;;10.00;5.17;;;;;;;;;;10206748;28;20050;-65
2021/01/15 06:30:58;;;;;;;11.10;5.20;;;;;;;;;;10194271;28;20073;-65
2021/01/15 06:35:56;;;;;;;;;;;;;;;;;;10179967;28;20034;-65
2021/01/15 06:40:54;;;;;;;8.80;4.45;;;;;;;;;;10186255;28;19914;-65
2021/01/15 06:45:54;;;;;;;9.88;5.50;;;;;;;;;;10204059;28;20134;-63
2021/01/15 06:50:52;;;;;;;16.67;6.55;;;;;;;;;;10197879;28;20150;-65
2021/01/15 06:55:56;;;;;;;9.38;5.03;;;;;;;;;;10213498;28;20037;-65
2021/01/15 07:00:56;;;;;;;9.20;5.07;;;;;;;;;;10198048;28;20042;-66
2021/01/15 07:05:54;;;;;;;9.82;4.82;;;;;;;;;;10197250;28;20527;-65
2021/01/15 07:10:51;;;;;;;12.30;5.68;;;;;;;;;;10194716;28;20408;-66
2021/01/15 07:15:53;;;;;;;10.90;4.50;;;;;;;;;;10182701;28;20034;-65
2021/01/15 07:20:55;;;;;;;10.60;5.55;;;;;;;;;;10193236;28;20043;-65
2021/01/15 07:25:53;;;;;;;7.47;4.55;;;;;;;;;;10195515;28;20096;-65
2021/01/15 07:30:51;;;;;;;11.15;5.28;;;;;;;;;;10185646;28;20043;-65
2021/01/15 07:35:48;;;;;;;12.50;5.80;;;;;;;;;;10192066;28;20080;-65
2021/01/15 07:40:46;;;;;;;15.97;5.97;;;;;;;;;;10192210;28;20096;-66
2021/01/15 07:45:46;;;;;;;10.20;5.43;;;;;;;;;;10201880;28;20535;-64
2021/01/15 07:50:44;;;;;;;11.98;6.07;;;;;;;;;;10195132;28;20514;-65
2021/01/15 07:55:42;;;;;;;13.02;5.32;;;;;;;;;;10199201;28;20039;-65
2021/01/15 08:00:40;;;;;;;9.23;5.10;;;;;;;;;;10184745;28;20798;-64
2021/01/15 08:05:37;;;;;;;10.77;5.70;;;;;;;;;;10195979;28;20441;-64
2021/01/15 08:10:44;;;;;;;14.70;7.07;;;;;;;;;;10190735;28;20421;-66
2021/01/15 08:15:42;;;;;;;11.93;5.78;;;;;;;;;;10191605;28;20120;-64
2021/01/15 08:20:44;;;;;;;13.77;5.60;;;;;;;;;;10222116;28;20034;-65
2021/01/15 08:25:41;;;;;;;9.25;4.07;;;;;;;;;;10206190;28;20041;-64
2021/01/15 08:30:38;;;;;;;6.63;3.90;;;;;;;;;;10191157;28;20532;-65
2021/01/15 08:35:37;;;;;;;9.87;5.93;;;;;;;;;;10228185;28;20080;-65
2021/01/15 08:40:43;;;;;;;10.68;4.45;;;;;;;;;;10191405;28;20034;-64
2021/01/15 08:45:41;;;;;;;11.55;4.72;;;;;;;;;;10227913;28;20104;-64
2021/01/15 08:50:39;;;;;;;9.00;4.47;;;;;;;;;;10199440;28;20035;-65
2021/01/15 08:55:40;;;;;;;10.73;4.72;;;;;;;;;;10200122;28;20089;-65
2021/01/15 09:00:37;;;;;;;10.77;4.47;;;;;;;;;;10179322;28;20039;-65
2021/01/15 09:05:36;;;;;;;9.30;4.43;;;;;;;;;;10182875;28;20038;-65
2021/01/15 09:10:33;;;;;;;8.50;3.55;;;;;;;;;;10190367;28;20050;-64
2021/01/15 09:15:31;;;;;;;7.80;4.32;;;;;;;;;;10178840;28;20030;-65
2021/01/15 09:20:28;;;;;;;8.00;4.70;;;;;;;;;;10186572;28;20085;-64
2021/01/15 09:25:26;;;;;;;6.47;3.60;;;;;;;;;;10186372;28;20126;-65
2021/01/15 09:30:23;;;;;;;5.57;3.20;;;;;;;;;;10201317;28;21234;-65
2021/01/15 09:35:21;;;;;;;6.75;4.40;;;;;;;;;;10192160;28;20089;-64
2021/01/15 09:40:18;;;;;;;7.80;4.07;;;;;;;;;;10194259;28;20038;-65
2021/01/15 09:45:16;;;;;;;7.53;3.37;;;;;;;;;;10186817;28;20042;-64
2021/01/15 09:50:14;;;;;;;7.05;3.42;;;;;;;;;;10196488;28;20039;-65
2021/01/15 09:55:11;;;;;;;3.90;2.97;;;;;;;;;;10217952;28;20030;-67
2021/01/15 10:00:10;;;;;;;3.50;2.77;;;;;;;;;;10189780;28;20039;-65
2021/01/15 10:05:07;;;;;;;;;;;;;;;;;;10172006;28;20038;-65
2021/01/15 10:10:05;;;;;;;6.28;3.08;;;;;;;;;;10203724;28;20252;-65
2021/01/15 10:15:02;;;;;;;7.28;3.55;;;;;;;;;;10189689;28;20085;-66
2021/01/15 10:20:00;;;;;;;4.70;2.92;;;;;;;;;;10172137;28;20035;-66
2021/01/15 10:24:57;;;;;;;3.37;2.23;;;;;;;;;;10199863;28;20049;-65
2021/01/15 10:29:55;;;;;;;5.90;3.10;;;;;;;;;;10185776;28;20493;-65
2021/01/15 10:34:53;;;;;;;5.67;3.17;;;;;;;;;;10187643;28;20030;-64
2021/01/15 10:39:50;;;;;;;7.63;3.90;;;;;;;;;;10190301;28;20034;-65
2021/01/15 10:44:48;;;;;;;6.23;3.03;;;;;;;;;;10193010;28;20455;-65
2021/01/15 10:49:45;;;;;;;6.20;2.97;;;;;;;;;;10213873;28;20589;-65
2021/01/15 10:54:42;;;;;;;6.67;3.27;;;;;;;;;;10183496;28;20089;-65
2021/01/15 10:59:40;;;;;;;5.67;2.97;;;;;;;;;;10191732;28;20034;-67
2021/01/15 11:04:37;;;;;;;2.37;1.70;;;;;;;;;;10203896;28;20058;-65
2021/01/15 11:09:34;;;;;;;4.87;2.90;;;;;;;;;;10196891;28;20069;-66
2021/01/15 11:14:32;;;;;;;4.10;3.03;;;;;;;;;;10189531;28;20121;-66
2021/01/15 11:19:29;;;;;;;6.77;2.80;;;;;;;;;;10189521;28;20034;-65
2021/01/15 11:24:27;;;;;;;4.03;2.63;;;;;;;;;;10203181;28;20042;-65
2021/01/15 11:29:24;;;;;;;5.43;2.67;;;;;;;;;;10167041;28;20039;-65
2021/01/15 11:34:22;;;;;;;4.00;2.67;;;;;;;;;;10182587;28;20134;-65
2021/01/15 11:39:20;;;;;;;;;;;;;;;;;;10188119;28;20453;-65
2021/01/15 11:44:18;;;;;;;4.50;2.88;;;;;;;;;;10197703;28;19918;-65
2021/01/15 11:49:15;;;;;;;4.22;2.75;;;;;;;;;;10214254;28;20026;-65
2021/01/15 11:54:12;;;;;;;4.47;2.37;;;;;;;;;;10192730;28;20034;-65
2021/01/15 11:59:10;;;;;;;3.03;2.27;;;;;;;;;;10203733;28;20109;-65
2021/01/15 12:04:07;;;;;;;5.63;2.20;;;;;;;;;;10216385;28;20073;-65
2021/01/15 12:09:05;;;;;;;4.97;3.07;;;;;;;;;;10207058;28;20034;-65
2021/01/15 12:14:02;;;;;;;5.67;2.50;;;;;;;;;;10197072;28;20509;-66
2021/01/15 12:19:00;;;;;;;4.37;2.23;;;;;;;;;;10205497;28;20050;-65
2021/01/15 12:23:57;;;;;;;5.97;1.70;;;;;;;;;;10183213;28;20524;-65
2021/01/15 12:28:55;;;;;;;3.50;2.33;;;;;;;;;;10199129;28;20042;-65
2021/01/15 12:33:52;;;;;;;1.27;1.23;;;;;;;;;;10201240;28;20034;-66
2021/01/15 12:38:49;;;;;;;4.83;2.67;;;;;;;;;;10212727;28;20173;-65
2021/01/15 12:43:47;;;;;;;4.70;3.00;;;;;;;;;;10207611;28;20052;-66
2021/01/15 12:48:44;;;;;;;4.33;1.70;;;;;;;;;;10201281;28;20034;-65
2021/01/15 12:53:42;;;;;;;3.13;1.87;;;;;;;;;;10199720;28;20056;-65
2021/01/15 12:58:39;;;;;;;3.93;2.30;;;;;;;;;;10175313;28;20613;-65
2021/01/15 13:03:36;;;;;;;1.07;0.87;;;;;;;;;;10191692;28;20042;-65
2021/01/15 13:08:34;;;;;;;3.50;1.93;;;;;;;;;;10199547;28;20456;-64
2021/01/15 13:13:31;;;;;;;4.30;1.40;;;;;;;;;;10192600;28;20113;-65
2021/01/15 13:18:28;;;;;;;3.20;1.70;;;;;;;;;;10192405;28;20089;-65
2021/01/15 13:23:26;;;;;;;2.63;1.43;;;;;;;;;;10187825;28;20035;-65
2021/01/15 13:28:23;;;;;;;2.70;1.87;;;;;;;;;;10205060;28;20458;-65
2021/01/15 13:33:20;;;;;;;2.90;1.70;;;;;;;;;;10206209;28;20500;-66
2021/01/15 13:38:18;;;;;;;2.63;1.90;;;;;;;;;;10196251;28;20027;-66
2021/01/15 13:43:15;;;;;;;6.03;1.87;;;;;;;;;;10198682;28;20038;-65
2021/01/15 13:48:13;;;;;;;4.40;2.07;;;;;;;;;;10206858;28;20512;-65
2021/01/15 13:53:11;;;;;;;4.67;2.30;;;;;;;;;;10205948;28;20038;-65
2021/01/15 13:58:08;;;;;;;5.80;2.13;;;;;;;;;;10200369;28;20092;-64
2021/01/15 14:03:05;;;;;;;3.17;1.90;;;;;;;;;;10201324;28;20030;-64
2021/01/15 14:08:03;;;;;;;2.43;1.83;;;;;;;;;;10188931;28;20045;-64
2021/01/15 14:13:03;;;;;;;3.23;2.33;;;;;;;;;;10192601;28;20109;-65
2021/01/15 14:18:01;;;;;;;2.10;1.45;;;;;;;;;;10190409;28;20556;-64
2021/01/15 14:22:59;;;;;;;3.63;1.53;;;;;;;;;;10203697;28;20121;-64
2021/01/15 14:27:56;;;;;;;8.30;2.00;;;;;;;;;;10198240;28;20093;-64
2021/01/15 14:32:54;;;;;;;1.37;1.00;;;;;;;;;;10197068;28;20044;-64
2021/01/15 14:37:52;;;;;;;1.88;1.33;;;;;;;;;;10205644;28;20500;-64
2021/01/15 14:42:50;;;;;;;;;;;;;;;;;;10205808;28;20570;-65
2021/01/15 14:47:47;;;;;;;3.77;1.60;;;;;;;;;;10199414;28;19936;-65
2021/01/15 14:52:46;;;;;;;2.30;1.53;;;;;;;;;;10188076;28;20373;-66
2021/01/15 14:57:43;;;;;;;;;;;;;;;;;;10183571;28;20250;-65
2021/01/15 15:02:44;;;;;;;5.85;1.90;;;;;;;;;;10196614;28;20407;-65
2021/01/15 15:07:50;;;;;;;7.20;2.50;;;;;;;;;;10199478;28;20060;-66
2021/01/15 15:12:49;;;;;;;2.17;1.40;;;;;;;;;;10206137;28;20038;-66
2021/01/15 15:17:46;;;;;;;6.60;1.85;;;;;;;;;;10208073;28;20078;-63
2021/01/15 15:22:44;;;;;;;2.42;1.52;;;;;;;;;;10213248;28;20122;-66
2021/01/15 15:27:41;;;;;;;3.27;1.73;;;;;;;;;;10219339;28;20517;-65
2021/01/15 15:32:39;;;;;;;3.40;1.83;;;;;;;;;;10213303;28;20505;-66
2021/01/15 15:37:37;;;;;;;2.07;1.20;;;;;;;;;;10217548;28;20642;-65
2021/01/15 15:42:34;;;;;;;3.70;1.70;;;;;;;;;;10204821;28;20035;-64
2021/01/15 15:47:32;;;;;;;0.80;0.80;;;;;;;;;;10182085;28;20037;-65
2021/01/15 15:52:30;;;;;;;5.78;1.55;;;;;;;;;;10194551;28;20429;-65
2021/01/15 15:57:27;;;;;;;1.03;1.03;;;;;;;;;;10209073;28;20030;-65
2021/01/15 16:02:25;;;;;;;0.90;0.90;;;;;;;;;;10187292;28;20049;-67
2021/01/15 16:07:22;;;;;;;4.77;1.57;;;;;;;;;;10205384;28;20039;-65
2021/01/15 16:12:19;;;;;;;1.60;1.00;;;;;;;;;;10194864;28;20385;-66
2021/01/15 16:17:17;;;;;;;1.40;1.30;;;;;;;;;;10181930;28;20412;-65
2021/01/15 16:22:14;;;;;;;2.57;1.23;;;;;;;;;;10215433;28;20042;-65
2021/01/15 16:27:11;;;;;;;1.53;1.10;;;;;;;;;;10208939;28;20524;-64
2021/01/15 16:32:09;;;;;;;3.33;1.20;;;;;;;;;;10192010;28;20030;-65
2021/01/15 16:37:06;;;;;;;0.80;0.80;;;;;;;;;;10192600;28;20041;-66
2021/01/15 16:42:05;;;;;;;6.67;0.90;;;;;;;;;;10180534;28;20513;-65
2021/01/15 16:47:03;;;;;;;0.82;0.82;;;;;;;;;;10221842;28;20038;-66
2021/01/15 16:52:01;;;;;;;2.03;1.33;;;;;;;;;;10198836;28;20038;-65
2021/01/15 16:56:58;;;;;;;1.63;1.53;;;;;;;;;;10188909;28;20088;-66
2021/01/15 17:01:55;;;;;;;1.90;1.60;;;;;;;;;;10188190;28;20294;-65
2021/01/15 17:06:53;;;;;;;1.67;1.23;;;;;;;;;;10181293;28;20035;-66
2021/01/15 17:11:51;;;;;;;1.45;0.98;;;;;;;;;;10187812;28;20089;-65
2021/01/15 17:16:49;;;;;;;1.30;1.20;;;;;;;;;;10180601;28;20035;-67
2021/01/15 17:21:47;;;;;;;1.30;0.97;;;;;;;;;;10200017;28;20121;-65
2021/01/15 17:26:45;;;;;;;5.13;1.67;;;;;;;;;;10203712;28;20481;-66
2021/01/15 17:31:43;;;;;;;1.75;1.10;;;;;;;;;;10195003;28;20353;-66
2021/01/15 17:36:40;;;;;;;;;;;;;;;;;;10193252;28;20031;-66
2021/01/15 17:41:40;;;;;;;1.25;1.15;;;;;;;;;;10186380;28;19941;-66
2021/01/15 17:46:41;;;;;;;2.40;1.08;;;;;;;;;;10186012;28;20576;-66
2021/01/15 17:51:40;;;;;;;0.90;0.90;;;;;;;;;;10222019;28;20530;-66
2021/01/15 17:56:37;;;;;;;3.22;1.65;;;;;;;;;;10180738;28;20034;-66
2021/01/15 18:01:35;;;;;;;2.23;1.70;;;;;;;;;;10185387;28;20761;-66
2021/01/15 18:06:34;;;;;;;1.70;1.60;;;;;;;;;;10202263;28;20041;-66
2021/01/15 18:11:32;;;;;;;1.67;1.25;;;;;;;;;;10197659;28;20122;-65
2021/01/15 18:16:29;;;;;;;1.48;1.38;;;;;;;;;;10180897;28;20137;-66
2021/01/15 18:21:27;;;;;;;2.20;1.40;;;;;;;;;;10190579;28;20516;-66
2021/01/15 18:26:24;;;;;;;1.53;1.03;;;;;;;;;;10198927;28;20065;-65
2021/01/15 18:31:23;;;;;;;2.40;1.20;;;;;;;;;;10182372;28;20034;-65
2021/01/15 18:36:22;;;;;;;1.25;1.15;;;;;;;;;;10183524;28;20038;-66
2021/01/15 18:41:19;;;;;;;1.33;1.10;;;;;;;;;;10162726;28;21052;-65
2021/01/15 18:46:17;;;;;;;1.23;1.13;;;;;;;;;;10192477;28;20047;-66
2021/01/15 18:51:14;;;;;;;1.23;1.00;;;;;;;;;;10181861;28;20609;-65
2021/01/15 18:56:11;;;;;;;2.90;1.40;;;;;;;;;;10191150;28;20034;-65
2021/01/15 19:01:09;;;;;;;3.93;1.20;;;;;;;;;;10178377;28;20046;-65
2021/01/15 19:06:07;;;;;;;1.25;1.13;;;;;;;;;;10170305;28;20549;-66
2021/01/15 19:11:04;;;;;;;1.33;1.20;;;;;;;;;;10178115;28;20410;-65
2021/01/15 19:16:01;;;;;;;1.23;1.10;;;;;;;;;;10190842;28;20042;-65
2021/01/15 19:20:59;;;;;;;1.60;0.93;;;;;;;;;;10223686;28;20055;-66
2021/01/15 19:25:56;;;;;;;1.10;1.00;;;;;;;;;;10189292;28;20034;-65
2021/01/15 19:30:54;;;;;;;1.10;1.00;;;;;;;;;;10204637;28;20031;-66
2021/01/15 19:35:52;;;;;;;3.10;0.85;;;;;;;;;;10128930;28;20043;-65
2021/01/15 19:40:50;;;;;;;2.22;1.33;;;;;;;;;;10154431;28;20575;-66
2021/01/15 19:45:50;;;;;;;0.85;0.85;;;;;;;;;;10159287;28;20048;-65
2021/01/15 19:50:47;;;;;;;3.05;1.50;;;;;;;;;;10172392;28;20049;-66
2021/01/15 19:55:46;;;;;;;2.33;0.88;;;;;;;;;;10156474;28;20455;-65
2021/01/15 20:00:43;;;;;;;3.60;1.35;;;;;;;;;;10163824;28;20042;-65
2021/01/15 20:05:42;;;;;;;1.00;1.00;;;;;;;;;;10149314;28;20058;-65
2021/01/15 20:10:40;;;;;;;1.23;1.13;;;;;;;;;;10180667;28;20421;-66
2021/01/15 20:15:38;;;;;;;4.85;1.95;;;;;;;;;;10131135;28;20041;-66
2021/01/15 20:20:36;;;;;;;1.10;1.00;;;;;;;;;;10192011;28;20043;-66
2021/01/15 20:25:35;;;;;;;1.98;0.90;;;;;;;;;;10199038;28;20504;-65
2021/01/15 20:30:33;;;;;;;2.88;1.15;;;;;;;;;;10206366;28;20129;-65
2021/01/15 20:35:31;;;;;;;0.40;0.40;;;;;;;;;;10202112;28;20030;-65
2021/01/15 20:40:29;;;;;;;1.67;1.48;;;;;;;;;;10205260;28;20038;-66
2021/01/15 20:45:27;;;;;;;0.97;0.63;;;;;;;;;;10195481;28;20041;-65
2021/01/15 20:50:25;;;;;;;1.83;1.02;;;;;;;;;;10205287;28;20400;-65
2021/01/15 20:55:23;;;;;;;2.45;1.00;;;;;;;;;;10189158;28;20385;-66
2021/01/15 21:00:21;;;;;;;2.13;1.35;;;;;;;;;;10192588;28;20041;-65
2021/01/15 21:05:19;;;;;;;;;;;;;;;;;;10196979;28;20077;-65
2021/01/15 21:10:16;;;;;;;1.52;1.42;;;;;;;;;;10156898;28;20055;-66
2021/01/15 21:15:14;;;;;;;0.77;0.70;;;;;;;;;;10196634;28;20042;-64
2021/01/15 21:20:11;;;;;;;1.00;1.00;;;;;;;;;;10207190;28;20030;-65
2021/01/15 21:25:09;;;;;;;1.67;1.58;;;;;;;;;;10190349;28;20046;-64
2021/01/15 21:30:07;;;;;;;8.88;1.80;;;;;;;;;;10193941;28;20136;-65
2021/01/15 21:35:05;;;;;;;1.80;1.45;;;;;;;;;;10193083;28;20038;-65
2021/01/15 21:40:04;;;;;;;1.27;1.17;;;;;;;;;;10190576;28;20449;-65
2021/01/15 21:45:02;;;;;;;1.70;1.60;;;;;;;;;;10192697;28;20290;-65
2021/01/15 21:50:00;;;;;;;1.95;1.85;;;;;;;;;;10206764;28;20058;-63
2021/01/15 21:54:57;;;;;;;3.87;2.07;;;;;;;;;;10200447;28;20066;-65
2021/01/15 21:59:54;;;;;;;2.83;1.53;;;;;;;;;;10188835;28;20035;-65
2021/01/15 22:04:52;;;;;;;2.47;1.97;;;;;;;;;;10191187;28;20035;-65
2021/01/15 22:09:49;;;;;;;2.40;1.63;;;;;;;;;;10196641;28;20037;-65
2021/01/15 22:14:47;;;;;;;2.37;1.57;;;;;;;;;;10194450;28;20121;-65
2021/01/15 22:19:44;;;;;;;2.13;1.53;;;;;;;;;;10187994;28;20038;-63
2021/01/15 22:24:41;;;;;;;1.70;1.33;;;;;;;;;;10192378;28;20046;-65
2021/01/15 22:29:39;;;;;;;1.40;1.23;;;;;;;;;;10182444;28;20035;-64
2021/01/15 22:34:36;;;;;;;2.93;1.23;;;;;;;;;;10186640;28;20122;-65
2021/01/15 22:39:34;;;;;;;7.07;1.73;;;;;;;;;;10193190;28;20469;-64
2021/01/15 22:44:31;;;;;;;5.67;1.93;;;;;;;;;;10178680;28;20042;-65
2021/01/15 22:49:28;;;;;;;2.47;1.20;;;;;;;;;;10174694;28;20093;-65
2021/01/15 22:54:26;;;;;;;1.40;1.30;;;;;;;;;;10179534;28;20039;-65
2021/01/15 22:59:23;;;;;;;3.03;1.87;;;;;;;;;;10205011;28;20035;-64
2021/01/15 23:04:20;;;;;;;0.93;0.83;;;;;;;;;;10190574;28;20062;-65
2021/01/15 23:09:18;;;;;;;2.57;1.43;;;;;;;;;;10193010;28;20524;-68
2021/01/15 23:14:15;;;;;;;2.23;1.70;;;;;;;;;;10175770;28;20042;-65
2021/01/15 23:19:14;;;;;;;4.03;1.63;;;;;;;;;;10200507;28;20046;-66
2021/01/15 23:24:11;;;;;;;2.83;1.17;;;;;;;;;;10219964;28;20054;-65
2021/01/15 23:29:09;;;;;;;1.67;1.30;;;;;;;;;;10198447;28;21597;-64
2021/01/15 23:34:06;;;;;;;1.97;1.73;;;;;;;;;;10202951;28;20034;-64
2021/01/15 23:39:04;;;;;;;0.97;0.97;;;;;;;;;;10191713;28;20039;-64
2021/01/15 23:44:01;;;;;;;0.73;0.73;;;;;;;;;;10208671;28;20485;-63
2021/01/15 23:48:59;;;;;;;2.65;1.50;;;;;;;;;;10220604;28;20430;-64
2021/01/15 23:53:56;;;;;;;2.27;1.57;;;;;;;;;;10210952;28;20530;-68
2021/01/15 23:58:54;;;;;;;3.33;1.20;;;;;;;;;;10220970;28;20569;-64
